Time;durP1;ratioP1;P1;durP2;ratioP2;P2;SDS_P1;SDS_P2;PMS_P1;PMS_P2;Temp;Humidity;BMP_temperature;BMP_pressure;BME280_temperature;BME280_humidity;BME280_pressure;Samples;Min_cycle;Max_cycle;Signal;HPM_P1;HPM_P2
2024/01/22 00:02:37;;;;;;;7.90;6.63;;;-2.00;99.90;;;-1.43;100.00;98686.44;10437631;28;20231;-65
2024/01/22 00:07:40;;;;;;;8.03;6.97;;;-2.00;99.90;;;-1.53;100.00;98668.53;10442127;28;20349;-65
2024/01/22 00:12:44;;;;;;;7.77;7.17;;;-2.10;99.90;;;-1.56;100.00;98657.25;10442164;28;20231;-65
2024/01/22 00:17:48;;;;;;;7.60;6.90;;;-2.10;99.90;;;-1.60;100.00;98658.53;10441400;28;20678;-65
2024/01/22 00:22:51;;;;;;;7.57;6.87;;;-2.20;99.90;;;-1.55;100.00;98659.03;10440334;28;20229;-65
2024/01/22 00:27:56;;;;;;;8.50;7.70;;;-2.20;99.90;;;-1.63;100.00;98640.59;10441816;28;20324;-65
2024/01/22 00:32:59;;;;;;;9.40;8.50;;;-2.20;99.90;;;-1.70;100.00;98645.63;10439057;28;20305;-65
2024/01/22 00:38:02;;;;;;;10.30;9.40;;;-2.20;99.90;;;-1.73;100.00;98631.13;10439053;28;20308;-65
2024/01/22 00:43:07;;;;;;;9.10;8.30;;;-2.30;99.90;;;-1.75;100.00;98621.63;10437228;28;20253;-65
2024/01/22 00:48:10;;;;;;;8.33;7.53;;;-2.40;99.90;;;-1.86;100.00;98621.31;10437639;28;20607;-65
2024/01/22 00:53:13;;;;;;;7.90;7.10;;;-2.40;99.90;;;-1.82;100.00;98615.03;10439951;28;20233;-64
2024/01/22 00:58:18;;;;;;;6.93;6.30;;;-2.40;99.90;;;-1.77;100.00;98601.44;10438857;28;20603;-64
2024/01/22 01:03:21;;;;;;;7.67;7.07;;;-2.30;99.90;;;-1.76;100.00;98595.69;10436382;28;20229;-64
2024/01/22 01:08:24;;;;;;;7.50;6.80;;;-2.30;99.90;;;-1.69;100.00;98597.28;10438875;28;20672;-64
2024/01/22 01:13:29;;;;;;;8.77;7.90;;;-2.20;99.90;;;-1.70;100.00;98596.41;10444460;28;20257;-64
2024/01/22 01:18:32;;;;;;;7.03;6.47;;;-2.30;99.90;;;-1.67;100.00;98580.84;10450606;28;20229;-65
2024/01/22 01:23:35;;;;;;;7.67;7.03;;;-2.30;99.90;;;-1.90;100.00;98556.53;10449653;28;20217;-64
2024/01/22 01:28:40;;;;;;;8.17;7.27;;;-2.50;99.90;;;-1.91;100.00;98544.72;10451728;28;20221;-64
2024/01/22 01:33:44;;;;;;;7.97;7.27;;;-2.40;99.90;;;-1.90;100.00;98535.59;10448169;28;20229;-64
2024/01/22 01:38:47;;;;;;;7.03;6.30;;;-2.40;99.90;;;-1.87;100.00;98535.94;10444945;28;20227;-65
2024/01/22 01:43:52;;;;;;;6.33;5.80;;;-2.40;99.90;;;-1.91;100.00;98539.72;10444838;28;20294;-65
2024/01/22 01:48:56;;;;;;;7.13;6.43;;;-2.40;99.90;;;-1.86;100.00;98547.75;10446478;28;20225;-65
2024/01/22 01:54:00;;;;;;;7.00;6.40;;;-2.40;99.90;;;-1.87;100.00;98545.97;10443469;28;20229;-65
2024/01/22 01:59:05;;;;;;;6.87;6.17;;;-2.50;99.90;;;-1.95;100.00;98542.56;10442952;28;20245;-65
2024/01/22 02:04:08;;;;;;;7.90;7.17;;;-2.60;99.90;;;-2.02;100.00;98527.56;10442460;28;20610;-66
2024/01/22 02:09:11;;;;;;;7.03;6.37;;;-2.60;99.90;;;-2.07;100.00;98529.53;10440093;28;20298;-66
2024/01/22 02:14:16;;;;;;;6.93;6.33;;;-2.70;99.90;;;-2.15;100.00;98541.88;10438528;28;20232;-66
2024/01/22 02:19:19;;;;;;;6.63;5.53;;;-2.70;99.90;;;-2.16;100.00;98543.50;10439786;28;20327;-66
2024/01/22 02:24:24;;;;;;;6.03;5.53;;;-2.70;99.90;;;-2.16;100.00;98550.09;10435667;28;20629;-65
2024/01/22 02:29:27;;;;;;;6.43;5.83;;;-2.80;99.90;;;-2.30;100.00;98516.84;10441113;28;20375;-64
2024/01/22 02:34:30;;;;;;;6.60;6.00;;;-2.90;99.90;;;-2.33;100.00;98524.00;10443636;28;20232;-64
2024/01/22 02:39:36;;;;;;;7.50;6.80;;;-2.90;99.90;;;-2.33;100.00;98521.50;10440940;28;20240;-65
2024/01/22 02:44:39;;;;;;;6.93;6.33;;;-2.90;99.90;;;-2.43;100.00;98522.72;10443284;28;20259;-64
2024/01/22 02:49:42;;;;;;;6.70;6.10;;;-3.00;99.90;;;-2.35;100.00;98520.41;10442551;28;20232;-64
2024/01/22 02:54:46;;;;;;;6.37;5.87;;;-2.90;99.90;;;-2.39;100.00;98529.91;10441998;28;20233;-64
2024/01/22 02:59:50;;;;;;;6.30;5.80;;;-2.90;99.90;;;-2.39;100.00;98528.28;10444173;28;20241;-64
2024/01/22 03:04:53;;;;;;;6.07;5.57;;;-3.00;99.90;;;-2.50;100.00;98529.53;10440748;28;20232;-66
2024/01/22 03:09:57;;;;;;;5.93;5.23;;;-3.00;99.90;;;-2.52;100.00;98515.03;10440887;28;20229;-65
2024/01/22 03:15:01;;;;;;;5.60;5.10;;;-3.00;99.90;;;-2.43;100.00;98513.66;10437925;28;20232;-65
2024/01/22 03:20:05;;;;;;;5.30;4.80;;;-2.90;99.90;;;-2.36;100.00;98505.22;10440834;28;20228;-66
2024/01/22 03:25:14;;;;;;;5.07;4.67;;;-2.90;99.90;;;-2.24;100.00;98498.25;10423538;28;20319;-65
2024/01/22 03:30:18;;;;;;;4.93;4.47;;;-2.90;99.90;;;-2.38;100.00;98502.53;10441626;28;20325;-65
2024/01/22 03:35:21;;;;;;;5.20;4.77;;;-3.00;99.90;;;-2.42;100.00;98492.91;10443803;28;20229;-66
2024/01/22 03:40:26;;;;;;;5.27;4.87;;;-3.00;99.90;;;-2.44;100.00;98488.44;10441471;28;20316;-66
2024/01/22 03:45:29;;;;;;;4.83;4.43;;;-3.00;99.90;;;-2.41;100.00;98474.66;10441420;28;20693;-65
2024/01/22 03:50:32;;;;;;;5.60;5.10;;;-3.00;99.90;;;-2.41;100.00;98467.13;10444408;28;20217;-66
2024/01/22 03:55:37;;;;;;;4.27;3.87;;;-3.00;99.90;;;-2.35;100.00;98455.34;10445011;28;20243;-66
2024/01/22 04:00:40;;;;;;;4.60;4.30;;;-2.90;99.90;;;-2.24;100.00;98471.59;10440855;28;20237;-66
2024/01/22 04:05:43;;;;;;;4.37;3.97;;;-2.80;99.90;;;-2.05;100.00;98469.63;10446235;28;20228;-65
2024/01/22 04:10:48;;;;;;;6.73;6.13;;;-2.70;99.90;;;-2.05;100.00;98470.50;10443708;28;20244;-65
2024/01/22 04:15:54;;;;;;;5.47;4.97;;;-2.60;99.90;;;-1.97;100.00;98463.00;10444872;28;20225;-65
2024/01/22 04:20:57;;;;;;;5.87;5.27;;;-2.50;99.90;;;-1.96;100.00;98465.66;10446501;28;20233;-66
2024/01/22 04:26:02;;;;;;;5.33;4.83;;;-2.50;99.90;;;-1.83;100.00;98453.81;10445161;28;20709;-66
2024/01/22 04:31:06;;;;;;;6.47;5.80;;;-2.40;99.90;;;-1.83;100.00;98443.81;10441282;28;20239;-66
2024/01/22 04:36:10;;;;;;;6.23;5.73;;;-2.40;99.90;;;-1.82;100.00;98450.59;10444934;28;20279;-67
2024/01/22 04:41:15;;;;;;;5.03;4.60;;;-2.30;99.90;;;-1.83;100.00;98422.88;10442595;28;20270;-66
2024/01/22 04:46:18;;;;;;;4.60;4.20;;;-2.30;99.90;;;-1.75;100.00;98418.72;10441511;28;20225;-66
2024/01/22 04:51:21;;;;;;;4.03;3.70;;;-2.20;99.90;;;-1.66;100.00;98409.72;10451099;28;21008;-66
2024/01/22 04:56:26;;;;;;;4.63;4.23;;;-2.20;99.90;;;-1.60;100.00;98408.81;10447174;28;20317;-64
2024/01/22 05:01:29;;;;;;;4.53;4.13;;;-2.10;99.90;;;-1.47;100.00;98398.53;10442970;28;20232;-65
2024/01/22 05:06:32;;;;;;;4.03;3.73;;;-2.00;99.90;;;-1.45;100.00;98399.59;10444535;28;20225;-65
2024/01/22 05:11:37;;;;;;;4.07;3.70;;;-2.00;99.90;;;-1.32;100.00;98383.41;10442113;28;20307;-65
2024/01/22 05:16:40;;;;;;;4.90;4.40;;;-2.00;99.90;;;-1.32;100.00;98375.88;10440317;28;20330;-65
2024/01/22 05:21:43;;;;;;;24.97;13.53;;;-1.90;99.90;;;-1.37;100.00;98380.41;10444059;28;20244;-65
2024/01/22 05:26:47;;;;;;;8.97;8.07;;;-1.90;99.90;;;-1.24;100.00;98386.03;10423271;28;20224;-65
2024/01/22 05:31:51;;;;;;;15.87;14.20;;;-1.80;99.90;;;-1.26;100.00;98372.47;10441119;28;20281;-65
2024/01/22 05:36:55;;;;;;;10.17;9.17;;;-1.90;99.90;;;-1.19;100.00;98376.53;10436798;28;20238;-65
2024/01/22 05:42:00;;;;;;;18.17;15.07;;;-1.90;99.90;;;-1.28;100.00;98360.47;10441713;28;20237;-65
2024/01/22 05:47:03;;;;;;;14.37;12.47;;;-1.90;99.90;;;-1.20;100.00;98362.22;10417036;28;20223;-65
2024/01/22 05:52:07;;;;;;;8.40;7.50;;;-1.70;99.90;;;-1.12;100.00;98378.97;10439358;28;20236;-65
2024/01/22 05:57:11;;;;;;;10.70;9.67;;;-1.60;99.90;;;-1.13;100.00;98364.66;10440772;28;20706;-65
2024/01/22 06:02:15;;;;;;;8.27;7.27;;;-1.60;99.90;;;-0.94;100.00;98370.06;10444224;28;20238;-65
2024/01/22 06:07:18;;;;;;;11.43;10.27;;;-1.50;99.90;;;-0.87;100.00;98362.47;10426254;28;20232;-65
2024/01/22 06:12:23;;;;;;;16.97;14.50;;;-1.50;99.90;;;-0.92;100.00;98334.41;10444737;28;20235;-65
2024/01/22 06:17:30;;;;;;;13.57;11.13;;;-1.50;99.90;;;-0.87;100.00;98322.34;10444299;28;20702;-65
2024/01/22 06:22:35;;;;;;;6.60;6.00;;;-1.40;99.90;;;-0.73;100.00;98314.66;10443268;28;20609;-65
2024/01/22 06:27:40;;;;;;;5.57;5.07;;;-1.20;99.90;;;-0.42;100.00;98312.03;10440518;28;20835;-65
2024/01/22 06:32:43;;;;;;;6.00;5.60;;;-1.10;99.90;;;-0.64;100.00;98304.72;10442769;28;20239;-65
2024/01/22 06:37:47;;;;;;;5.17;4.77;;;-1.20;99.90;;;-0.58;100.00;98304.47;10446080;28;20231;-64
2024/01/22 06:42:51;;;;;;;6.47;5.97;;;-1.10;99.90;;;-0.43;100.00;98302.69;10442965;28;20231;-65
2024/01/22 06:47:55;;;;;;;7.27;6.67;;;-1.00;99.90;;;-0.38;100.00;98301.56;10436332;28;20229;-64
2024/01/22 06:52:58;;;;;;;7.70;6.17;;;-1.00;99.90;;;-0.32;100.00;98303.09;10435827;28;20227;-64
2024/01/22 06:58:03;;;;;;;8.33;7.63;;;-1.00;99.90;;;-0.38;100.00;98311.63;10441548;28;20227;-64
2024/01/22 07:03:06;;;;;;;7.73;6.97;;;-1.00;99.90;;;-0.32;100.00;98305.63;10434016;28;20236;-65
2024/01/22 07:08:09;;;;;;;18.47;13.17;;;-0.90;99.90;;;-0.30;100.00;98290.72;10437417;28;20229;-64
2024/01/22 07:13:14;;;;;;;9.67;8.07;;;-0.90;99.90;;;-0.21;100.00;98283.28;10434309;28;20231;-64
2024/01/22 07:18:17;;;;;;;10.00;9.00;;;-0.80;99.90;;;-0.22;100.00;98282.38;10433320;28;20232;-64
2024/01/22 07:23:20;;;;;;;8.47;7.53;;;-0.70;99.90;;;0.05;100.00;98278.44;10431694;28;20232;-64
2024/01/22 07:28:25;;;;;;;11.33;9.20;;;-0.60;99.90;;;0.02;100.00;98278.13;10433269;28;20235;-65
2024/01/22 07:33:29;;;;;;;12.80;11.60;;;-0.60;99.90;;;-0.06;100.00;98270.72;10431066;28;20616;-65
2024/01/22 07:38:34;;;;;;;15.00;12.87;;;-0.60;99.90;;;0.18;100.00;98268.94;10428865;28;20627;-65
2024/01/22 07:43:38;;;;;;;13.77;11.70;;;-0.50;99.90;;;0.06;100.00;98266.06;10434012;28;20233;-65
2024/01/22 07:48:41;;;;;;;13.10;11.90;;;-0.50;99.90;;;0.10;100.00;98283.22;10431620;28;20217;-65
2024/01/22 07:53:45;;;;;;;11.53;10.23;;;-0.40;99.90;;;0.25;100.00;98293.97;10436313;28;20339;-65
2024/01/22 07:58:49;;;;;;;8.97;8.07;;;-0.30;99.90;;;0.31;100.00;98289.56;10435572;28;20225;-65
2024/01/22 08:03:53;;;;;;;9.33;8.33;;;-0.30;99.90;;;0.32;100.00;98268.75;10434529;28;20259;-65
2024/01/22 08:08:58;;;;;;;8.83;8.03;;;-0.20;99.90;;;0.32;100.00;98250.25;10436163;28;20276;-65
2024/01/22 08:14:02;;;;;;;9.00;8.10;;;-0.20;99.90;;;0.32;100.00;98236.06;10443058;28;20704;-65
2024/01/22 08:19:05;;;;;;;8.60;7.70;;;-0.10;99.90;;;0.39;100.00;98220.84;10439399;28;20806;-64
2024/01/22 08:24:09;;;;;;;7.07;6.47;;;0.10;99.90;;;0.55;100.00;98204.81;10440221;28;20643;-65
2024/01/22 08:29:13;;;;;;;5.47;4.97;;;0.20;99.90;;;0.66;100.00;98199.25;10442003;28;20233;-65
2024/01/22 08:34:17;;;;;;;4.97;4.47;;;0.40;99.90;;;1.00;100.00;98193.44;10442513;28;20235;-65
2024/01/22 08:39:20;;;;;;;11.20;10.07;;;0.60;99.90;;;1.20;100.00;98197.00;10407351;28;20367;-65
2024/01/22 08:44:25;;;;;;;12.47;10.33;;;0.70;99.90;;;1.08;100.00;98199.19;10429297;28;20230;-65
2024/01/22 08:49:28;;;;;;;8.13;6.63;;;0.50;99.90;;;0.90;100.00;98181.53;10444087;28;20662;-65
2024/01/22 08:54:32;;;;;;;11.10;7.40;;;0.50;99.90;;;1.07;100.00;98189.88;10444076;28;20288;-65
2024/01/22 08:59:36;;;;;;;8.37;7.57;;;0.70;99.90;;;1.49;100.00;98188.16;10438617;28;20227;-65
2024/01/22 09:04:39;;;;;;;6.87;6.23;;;0.80;99.90;;;1.57;100.00;98177.19;10438280;28;20606;-65
2024/01/22 09:09:42;;;;;;;7.07;6.37;;;0.90;99.90;;;1.50;100.00;98158.81;10441702;28;20228;-63
2024/01/22 09:14:47;;;;;;;7.17;6.47;;;0.90;99.90;;;1.55;100.00;98162.66;10442486;28;20306;-64
2024/01/22 09:19:50;;;;;;;8.37;7.67;;;1.00;99.90;;;1.76;100.00;98157.16;10442034;28;20229;-64
2024/01/22 09:24:54;;;;;;;7.30;6.70;;;1.30;99.90;;;2.02;100.00;98146.13;10440252;28;20658;-64
2024/01/22 09:29:59;;;;;;;7.77;7.17;;;1.60;99.90;;;2.15;100.00;98144.03;10440185;28;20227;-64
2024/01/22 09:35:02;;;;;;;7.17;6.53;;;1.70;99.90;;;2.27;100.00;98143.41;10443345;28;20233;-65
2024/01/22 09:40:09;;;;;;;7.40;6.80;;;1.70;99.90;;;2.28;100.00;98147.69;10438916;28;20754;-65
2024/01/22 09:45:24;;;;;;;7.13;6.53;;;1.70;99.90;;;2.29;100.00;98134.31;10441777;28;20730;-65
2024/01/22 09:50:28;;;;;;;7.07;6.47;;;1.70;99.90;;;2.38;100.00;98115.91;10436931;28;20708;-65
2024/01/22 09:55:33;;;;;;;6.00;5.53;;;1.90;99.90;;;2.57;100.00;98108.38;10444699;28;20256;-64
2024/01/22 10:00:39;;;;;;;4.43;4.03;;;2.20;99.90;;;3.32;100.00;98104.16;10446510;28;20224;-65
2024/01/22 10:05:44;;;;;;;4.13;3.83;;;3.00;99.90;;;4.00;100.00;98085.66;10443132;28;20614;-65
2024/01/22 10:10:48;;;;;;;11.30;5.50;;;3.60;99.90;;;4.15;100.00;98088.59;10441492;28;20232;-65
2024/01/22 10:15:52;;;;;;;6.33;4.93;;;3.60;99.90;;;4.28;100.00;98058.53;10440318;28;20217;-65
2024/01/22 10:20:58;;;;;;;4.47;3.80;;;3.70;99.90;;;4.57;100.00;98055.03;10436239;28;20253;-67
2024/01/22 10:26:07;;;;;;;3.60;3.30;;;4.30;99.90;;;5.01;100.00;98047.66;10434714;28;20659;-66
2024/01/22 10:31:12;;;;;;;5.00;3.60;;;4.70;99.90;;;5.23;100.00;98042.69;10433428;28;20600;-65
2024/01/22 10:36:18;;;;;;;3.90;3.60;;;4.90;99.90;;;5.40;100.00;98027.16;10437390;28;20640;-64
2024/01/22 10:41:23;;;;;;;4.47;4.07;;;4.90;99.90;;;5.46;100.00;98009.03;10436863;28;20236;-64
2024/01/22 10:46:28;;;;;;;3.70;3.40;;;4.90;99.90;;;5.62;100.00;98012.00;10439171;28;20224;-64
2024/01/22 10:51:33;;;;;;;3.60;3.40;;;5.10;99.90;;;5.70;100.00;97999.94;10443104;28;20704;-65
2024/01/22 10:56:41;;;;;;;4.70;4.30;;;5.20;99.90;;;6.09;100.00;97984.38;10440214;28;22285;-64
2024/01/22 11:01:48;;;;;;;3.90;3.60;;;5.40;99.90;;;6.39;100.00;97964.63;10436430;28;20236;-64
2024/01/22 11:06:59;;;;;;;2.43;2.23;;;5.80;99.90;;;7.21;100.00;97965.63;10436537;28;20290;-64
2024/01/22 11:12:09;;;;;;;2.03;1.70;;;6.70;99.90;;;7.53;100.00;97961.03;10417066;28;20583;-64
2024/01/22 11:17:15;;;;;;;2.20;2.10;;;7.20;99.90;;;7.84;100.00;97964.03;10421313;28;20318;-64
2024/01/22 11:22:23;;;;;;;2.23;2.13;;;7.50;99.90;;;8.03;100.00;97961.97;10436280;28;20267;-64
2024/01/22 11:27:38;;;;;;;2.37;2.17;;;7.50;99.90;;;8.39;100.00;97942.38;10434287;28;20302;-64
2024/01/22 11:32:44;;;;;;;2.30;2.10;;;7.70;99.90;;;8.31;100.00;97920.56;10438188;28;20660;-64
2024/01/22 11:37:48;;;;;;;1.80;1.70;;;7.70;99.90;;;8.64;98.84;97910.84;10435268;28;20328;-63
2024/01/22 11:42:51;;;;;;;2.10;1.90;;;8.10;99.90;;;8.67;100.00;97901.78;10445286;28;20225;-65
2024/01/22 11:47:56;;;;;;;2.30;2.10;;;8.10;99.90;;;8.80;100.00;97898.34;10443779;28;20327;-64
2024/01/22 11:53:01;;;;;;;2.13;1.90;;;8.20;99.90;;;8.94;100.00;97902.66;10443113;28;20255;-64
2024/01/22 11:58:10;;;;;;;2.10;2.00;;;8.50;99.90;;;9.21;100.00;97893.34;10440958;28;20247;-65
2024/01/22 12:03:15;;;;;;;1.90;1.40;;;8.70;99.90;;;9.30;100.00;97899.78;10440893;28;20233;-64
2024/01/22 12:08:18;;;;;;;2.30;2.08;;;8.90;99.90;;;9.21;100.00;97902.63;10438184;28;20242;-65
2024/01/22 12:13:22;;;;;;;2.28;2.05;;;8.90;99.90;;;9.37;100.00;97890.06;10440199;28;20232;-64
2024/01/22 12:18:27;;;;;;;3.25;2.92;;;8.90;99.90;;;9.57;100.00;97892.97;10434536;28;20311;-64
2024/01/22 12:23:31;;;;;;;1.45;1.45;;;9.20;99.90;;;10.04;97.31;97889.81;10436810;28;20298;-64
2024/01/22 12:28:34;;;;;;;2.55;2.35;;;9.80;99.90;;;10.22;95.81;97865.38;10433730;28;20217;-64
2024/01/22 12:33:39;;;;;;;1.60;1.50;;;9.90;99.90;;;10.28;96.17;97886.22;10437212;28;20332;-64
2024/01/22 12:38:50;;;;;;;1.63;1.52;;;10.00;99.90;;;10.32;94.39;97875.34;10433201;28;20218;-63
2024/01/22 12:43:56;;;;;;;2.10;2.00;;;9.90;99.90;;;10.42;93.63;97889.56;10435903;28;20236;-64
2024/01/22 12:49:01;;;;;;;1.70;1.60;;;10.00;99.90;;;10.46;93.46;97880.41;10432844;28;20217;-63
2024/01/22 12:54:06;;;;;;;1.98;1.88;;;10.10;99.90;;;10.49;93.79;97875.47;10429829;28;20963;-63
2024/01/22 12:59:10;;;;;;;1.73;1.63;;;10.10;99.90;;;10.55;94.56;97875.81;10433656;28;20300;-63
2024/01/22 13:04:16;;;;;;;2.10;1.85;;;10.10;99.90;;;10.60;93.66;97864.19;10429724;28;20232;-64
2024/01/22 13:09:20;;;;;;;1.65;1.55;;;10.20;99.90;;;10.59;92.69;97852.22;10436514;28;20228;-64
2024/01/22 13:14:23;;;;;;;1.73;1.60;;;10.30;99.90;;;10.64;92.39;97853.31;10443744;28;20241;-64
2024/01/22 13:19:30;;;;;;;1.90;1.80;;;10.30;99.90;;;10.67;91.83;97827.94;10443082;28;20253;-64
2024/01/22 13:24:34;;;;;;;1.98;1.88;;;10.40;99.90;;;10.65;91.98;97816.75;10439448;28;20231;-64
2024/01/22 13:29:37;;;;;;;1.70;1.60;;;10.30;99.90;;;10.75;91.70;97811.34;10443276;28;20760;-64
2024/01/22 13:34:42;;;;;;;1.80;1.70;;;10.30;99.90;;;10.83;91.57;97829.69;10445734;28;20655;-63
2024/01/22 13:39:46;;;;;;;1.40;1.40;;;10.40;99.90;;;11.00;91.22;97817.81;10443581;28;20232;-63
2024/01/22 13:44:51;;;;;;;1.70;1.60;;;10.60;99.90;;;10.93;91.32;97820.81;10443954;28;20720;-64
2024/01/22 13:49:57;;;;;;;1.67;1.58;;;10.50;99.90;;;10.97;91.74;97812.53;10444436;28;20961;-63
2024/01/22 13:55:00;;;;;;;2.10;2.00;;;10.40;99.90;;;11.04;91.34;97817.19;10425347;28;20275;-63
2024/01/22 14:00:06;;;;;;;1.40;1.38;;;10.50;99.90;;;10.99;92.18;97810.97;10443966;28;20221;-64
2024/01/22 14:05:12;;;;;;;2.47;1.50;;;10.60;99.90;;;10.98;92.71;97807.50;10448646;28;20608;-64
2024/01/22 14:10:15;;;;;;;1.13;1.13;;;10.50;99.90;;;10.91;92.22;97791.75;10441989;28;20240;-64
2024/01/22 14:15:19;;;;;;;1.33;1.20;;;10.40;99.90;;;10.97;92.56;97803.19;10439949;28;20256;-63
2024/01/22 14:20:23;;;;;;;1.75;1.65;;;10.50;99.90;;;10.87;92.69;97800.03;10444225;28;20776;-63
2024/01/22 14:25:27;;;;;;;1.42;1.33;;;10.50;99.90;;;10.83;92.54;97794.75;10417394;22;20233;-63
2024/01/22 14:30:30;;;;;;;2.35;1.60;;;10.50;99.90;;;10.97;92.53;97792.97;10395127;28;20225;-63
2024/01/22 14:35:35;;;;;;;1.30;1.30;;;10.60;99.90;;;10.97;92.31;97800.63;10393879;28;20233;-64
2024/01/22 14:40:39;;;;;;;1.50;1.40;;;10.60;99.90;;;10.87;92.35;97800.91;10392270;28;20229;-62
2024/01/22 14:45:42;;;;;;;2.00;1.60;;;10.40;99.90;;;10.93;91.80;97815.72;10393687;28;20244;-64
2024/01/22 14:50:47;;;;;;;1.65;1.60;;;10.40;99.90;;;10.75;92.56;97811.34;10395662;28;20233;-65
2024/01/22 14:55:51;;;;;;;1.50;1.30;;;10.40;99.90;;;10.77;93.59;97809.78;10391688;28;20256;-64
2024/01/22 15:00:54;;;;;;;2.05;1.90;;;10.30;99.90;;;10.79;92.68;97813.31;10391668;28;20230;-64
2024/01/22 15:05:58;;;;;;;1.65;1.55;;;10.30;99.90;;;10.63;93.81;97815.78;10390648;28;20237;-64
2024/01/22 15:11:02;;;;;;;1.75;1.65;;;10.30;99.90;;;10.74;92.77;97813.84;10390571;28;20228;-64
2024/01/22 15:16:09;;;;;;;1.85;1.60;;;10.30;99.90;;;10.74;93.27;97813.84;10388971;28;20254;-64
2024/01/22 15:21:15;;;;;;;2.17;1.83;;;10.30;99.90;;;10.71;93.25;97831.56;10392267;28;20238;-64
2024/01/22 15:26:18;;;;;;;5.18;4.75;;;10.30;99.90;;;10.60;93.37;97830.97;10391462;28;20231;-64
2024/01/22 15:31:21;;;;;;;7.47;6.28;;;10.20;99.90;;;10.74;93.92;97835.16;10392367;28;20232;-64
2024/01/22 15:36:27;;;;;;;6.25;4.97;;;10.40;99.90;;;10.36;98.78;97856.00;10393889;28;20300;-64
2024/01/22 15:41:31;;;;;;;3.75;2.63;;;9.80;99.90;;;10.01;100.00;97857.31;10392750;28;20229;-64
2024/01/22 15:46:34;;;;;;;4.93;2.80;;;9.40;99.90;;;9.67;100.00;97847.69;10390824;28;20228;-64
2024/01/22 15:51:39;;;;;;;8.55;7.53;;;9.20;99.90;;;9.38;100.00;97839.91;10391740;28;20218;-63
2024/01/22 15:56:42;;;;;;;2.80;2.60;;;8.90;99.90;;;9.36;100.00;97841.50;10392607;28;20221;-64
2024/01/22 16:01:46;;;;;;;2.63;2.08;;;8.80;99.90;;;9.47;100.00;97846.47;10391763;28;20312;-64
2024/01/22 16:06:51;;;;;;;2.75;2.65;;;9.00;99.90;;;9.37;100.00;97844.13;10392317;28;20236;-63
2024/01/22 16:12:09;;;;;;;3.17;2.92;;;8.90;99.90;;;9.51;100.00;97856.88;10383697;28;20241;-66
2024/01/22 16:17:12;;;;;;;3.90;3.60;;;9.10;99.90;;;9.44;100.00;97861.59;10383220;28;20225;-64
2024/01/22 16:22:17;;;;;;;2.97;2.78;;;9.30;99.90;;;9.42;100.00;97882.69;10384643;28;20234;-65
2024/01/22 16:27:21;;;;;;;6.75;5.00;;;9.20;99.90;;;9.31;100.00;97876.03;10383889;28;20245;-65
2024/01/22 16:32:24;;;;;;;2.13;2.03;;;9.00;99.90;;;9.29;100.00;97883.59;10385179;28;20233;-64
2024/01/22 16:37:29;;;;;;;1.90;1.80;;;9.00;99.90;;;9.25;100.00;97885.06;10383555;28;20240;-64
2024/01/22 16:42:33;;;;;;;1.90;1.80;;;8.90;99.90;;;9.24;100.00;97903.72;10388350;28;20316;-64
2024/01/22 16:47:36;;;;;;;1.77;1.50;;;9.00;99.90;;;9.16;100.00;97904.03;10390985;28;20233;-64
2024/01/22 16:52:41;;;;;;;2.10;1.90;;;8.80;99.90;;;9.09;100.00;97917.16;10389117;28;20226;-63
2024/01/22 16:57:45;;;;;;;3.70;1.83;;;9.00;99.90;;;9.05;100.00;97951.78;10397028;28;20311;-64
2024/01/22 17:02:50;;;;;;;3.20;2.38;;;8.80;99.90;;;8.97;100.00;97988.63;10397064;28;20615;-65
2024/01/22 17:07:55;;;;;;;2.28;2.08;;;8.60;99.90;;;8.94;100.00;97994.41;10396351;28;20230;-65
2024/01/22 17:12:58;;;;;;;2.80;2.60;;;8.60;99.90;;;8.85;100.00;98006.56;10401606;28;20239;-67
2024/01/22 17:18:01;;;;;;;5.40;4.90;;;8.50;99.90;;;8.82;100.00;98025.88;10407548;28;20226;-65
2024/01/22 17:23:06;;;;;;;3.20;2.40;;;8.50;99.90;;;8.64;100.00;98034.06;10378854;28;20225;-65
2024/01/22 17:28:10;;;;;;;2.80;2.47;;;8.30;99.90;;;8.54;100.00;98060.56;10372733;28;20242;-63
2024/01/22 17:33:16;;;;;;;4.07;3.15;;;8.10;99.90;;;8.47;100.00;98101.69;10405375;28;20308;-65
2024/01/22 17:38:21;;;;;;;17.30;12.23;;;8.10;99.90;;;8.40;100.00;98124.97;10403247;28;20236;-65
2024/01/22 17:43:24;;;;;;;3.43;2.70;;;8.10;99.90;;;8.40;100.00;98140.25;10404024;28;20884;-65
2024/01/22 17:48:27;;;;;;;3.53;2.30;;;8.20;99.90;;;8.15;100.00;98154.53;10405293;28;20417;-65
2024/01/22 17:53:32;;;;;;;2.13;1.77;;;8.00;99.90;;;8.20;100.00;98150.66;10402825;28;20226;-64
2024/01/22 17:58:36;;;;;;;2.83;2.30;;;7.90;99.90;;;8.11;100.00;98172.13;10400899;28;20218;-65
2024/01/22 18:03:41;;;;;;;2.47;2.27;;;7.80;99.90;;;7.88;100.00;98182.34;10404191;28;20226;-65
2024/01/22 18:08:45;;;;;;;1.87;1.77;;;7.50;99.90;;;7.74;100.00;98194.03;10405490;28;20225;-65
2024/01/22 18:13:49;;;;;;;3.00;2.47;;;7.20;99.90;;;7.42;100.00;98212.03;10402392;28;20257;-65
2024/01/22 18:18:52;;;;;;;3.63;3.27;;;7.00;99.90;;;7.29;100.00;98215.28;10400646;28;20624;-61
2024/01/22 18:23:56;;;;;;;5.80;3.50;;;6.80;99.90;;;7.02;100.00;98239.50;10398526;28;20723;-62
2024/01/22 18:29:00;;;;;;;4.20;3.80;;;6.60;99.90;;;7.01;100.00;98258.06;10396148;28;20338;-62
2024/01/22 18:34:03;;;;;;;3.23;3.00;;;6.60;99.90;;;6.85;100.00;98268.69;10394022;28;20650;-62
2024/01/22 18:39:08;;;;;;;12.83;7.73;;;6.40;99.90;;;6.75;100.00;98287.44;10397296;28;20238;-61
2024/01/22 18:44:12;;;;;;;3.77;3.40;;;6.40;99.90;;;6.81;100.00;98286.09;10391302;28;20709;-61
2024/01/22 18:49:15;;;;;;;3.10;2.90;;;6.30;99.90;;;6.69;100.00;98307.22;10391327;28;20226;-61
2024/01/22 18:54:21;;;;;;;5.20;3.13;;;6.20;99.90;;;6.65;100.00;98311.97;10392845;28;20229;-61
2024/01/22 18:59:25;;;;;;;3.20;3.00;;;6.20;99.90;;;6.69;100.00;98327.56;10395971;28;20693;-62
2024/01/22 19:04:28;;;;;;;2.60;2.40;;;6.20;99.90;;;6.62;100.00;98335.47;10391941;28;20618;-61
2024/01/22 19:09:33;;;;;;;3.70;3.40;;;6.10;99.90;;;6.56;100.00;98332.44;10390775;28;20253;-60
2024/01/22 19:14:36;;;;;;;4.20;3.90;;;6.10;99.90;;;6.52;100.00;98350.72;10392131;28;20222;-60
2024/01/22 19:19:40;;;;;;;4.67;4.17;;;6.00;99.90;;;6.47;100.00;98364.72;10395106;28;20230;-59
2024/01/22 19:24:44;;;;;;;3.83;3.53;;;6.00;99.90;;;6.44;100.00;98380.59;10389495;28;20256;-60
2024/01/22 19:29:48;;;;;;;4.03;3.50;;;6.00;99.90;;;6.46;100.00;98398.47;10389719;28;20728;-61
2024/01/22 19:34:51;;;;;;;3.77;3.47;;;5.90;99.90;;;6.42;100.00;98394.81;10393666;28;20304;-62
2024/01/22 19:39:57;;;;;;;3.43;3.20;;;5.90;99.90;;;6.36;100.00;98394.31;10393728;28;20309;-61
2024/01/22 19:45:00;;;;;;;3.70;3.50;;;5.80;99.90;;;6.38;100.00;98391.88;10388920;28;20230;-59
2024/01/22 19:50:04;;;;;;;10.30;9.30;;;5.80;99.90;;;6.36;100.00;98388.34;10384815;28;20280;-62
2024/01/22 19:55:09;;;;;;;9.50;8.60;;;5.80;99.90;;;6.23;100.00;98405.09;10382168;28;20233;-60
2024/01/22 20:00:14;;;;;;;11.10;10.00;;;5.80;99.90;;;6.22;100.00;98407.50;10389214;28;20225;-59
2024/01/22 20:05:17;;;;;;;9.47;8.57;;;5.70;99.90;;;6.19;100.00;98390.38;10391080;28;20229;-61
2024/01/22 20:10:24;;;;;;;12.37;10.93;;;5.60;99.90;;;6.08;100.00;98403.81;10390058;28;20245;-61
2024/01/22 20:15:28;;;;;;;10.50;9.53;;;5.50;99.90;;;6.00;100.00;98402.31;10391447;28;20419;-61
2024/01/22 20:20:32;;;;;;;10.33;9.23;;;5.50;99.90;;;5.97;100.00;98395.31;10397037;28;20253;-60
2024/01/22 20:25:36;;;;;;;11.17;10.07;;;5.40;99.90;;;5.87;100.00;98396.19;10397752;28;20237;-61
2024/01/22 20:30:40;;;;;;;11.03;8.70;;;5.30;99.90;;;5.79;100.00;98388.69;10395631;28;20226;-61
2024/01/22 20:35:43;;;;;;;9.40;8.10;;;5.20;99.90;;;5.68;100.00;98392.84;10397341;28;20592;-61
2024/01/22 20:40:52;;;;;;;6.87;6.27;;;5.10;99.90;;;5.62;100.00;98398.28;10399255;28;20224;-61
2024/01/22 20:45:55;;;;;;;5.73;5.23;;;5.00;99.90;;;5.57;100.00;98412.22;10401673;28;20697;-61
2024/01/22 20:50:58;;;;;;;4.87;4.47;;;5.00;99.90;;;5.53;100.00;98415.25;10404004;28;21979;-61
2024/01/22 20:56:03;;;;;;;3.03;2.70;;;4.90;99.90;;;5.56;100.00;98429.84;10400571;28;20225;-61
2024/01/22 21:01:08;;;;;;;3.40;3.10;;;4.90;99.90;;;5.45;100.00;98425.50;10396400;28;20228;-61
2024/01/22 21:06:12;;;;;;;3.47;3.17;;;4.90;99.90;;;5.34;100.00;98417.84;10388810;28;20234;-62